sensor_id;sensor_type;location;lat;lon;timestamp;P1;durP1;ratioP1;P2;durP2;ratioP2
6412;SDS011;3239;48.714;9.472;2023-06-22T00:01:27;9.40;;;7.20;;
6412;SDS011;3239;48.714;9.472;2023-06-22T00:03:53;9.00;;;6.53;;
6412;SDS011;3239;48.714;9.472;2023-06-22T00:06:19;7.33;;;6.30;;
6412;SDS011;3239;48.714;9.472;2023-06-22T00:08:45;10.90;;;8.20;;
6412;SDS011;3239;48.714;9.472;2023-06-22T00:11:10;7.10;;;6.40;;
6412;SDS011;3239;48.714;9.472;2023-06-22T00:13:37;7.20;;;5.90;;
6412;SDS011;3239;48.714;9.472;2023-06-22T00:16:03;7.20;;;6.53;;
6412;SDS011;3239;48.714;9.472;2023-06-22T00:18:29;15.70;;;6.40;;
6412;SDS011;3239;48.714;9.472;2023-06-22T00:20:56;6.70;;;6.10;;
6412;SDS011;3239;48.714;9.472;2023-06-22T00:23:25;8.37;;;6.30;;
6412;SDS011;3239;48.714;9.472;2023-06-22T00:25:51;10.60;;;5.87;;
6412;SDS011;3239;48.714;9.472;2023-06-22T00:28:17;8.30;;;6.07;;
6412;SDS011;3239;48.714;9.472;2023-06-22T00:30:43;9.67;;;6.77;;
6412;SDS011;3239;48.714;9.472;2023-06-22T00:33:08;9.63;;;6.53;;
6412;SDS011;3239;48.714;9.472;2023-06-22T00:35:34;6.50;;;5.60;;
6412;SDS011;3239;48.714;9.472;2023-06-22T00:38:00;10.20;;;5.83;;
6412;SDS011;3239;48.714;9.472;2023-06-22T00:40:27;8.10;;;5.97;;
6412;SDS011;3239;48.714;9.472;2023-06-22T00:42:54;6.50;;;6.00;;
6412;SDS011;3239;48.714;9.472;2023-06-22T00:45:21;6.57;;;5.90;;
6412;SDS011;3239;48.714;9.472;2023-06-22T00:47:51;7.43;;;6.13;;
6412;SDS011;3239;48.714;9.472;2023-06-22T00:50:22;8.00;;;5.67;;
6412;SDS011;3239;48.714;9.472;2023-06-22T00:52:51;7.93;;;5.77;;
6412;SDS011;3239;48.714;9.472;2023-06-22T00:55:21;8.17;;;5.90;;
6412;SDS011;3239;48.714;9.472;2023-06-22T00:57:48;7.13;;;6.43;;
6412;SDS011;3239;48.714;9.472;2023-06-22T01:00:17;7.10;;;6.40;;
6412;SDS011;3239;48.714;9.472;2023-06-22T01:02:44;7.40;;;6.57;;
6412;SDS011;3239;48.714;9.472;2023-06-22T01:05:11;10.63;;;6.80;;
6412;SDS011;3239;48.714;9.472;2023-06-22T01:16:27;7.47;;;6.77;;
6412;SDS011;3239;48.714;9.472;2023-06-22T01:21:43;8.00;;;5.90;;
6412;SDS011;3239;48.714;9.472;2023-06-22T01:24:23;10.80;;;7.00;;
6412;SDS011;3239;48.714;9.472;2023-06-22T01:27:05;11.73;;;6.87;;
6412;SDS011;3239;48.714;9.472;2023-06-22T01:30:10;7.77;;;6.97;;
6412;SDS011;3239;48.714;9.472;2023-06-22T01:32:39;10.23;;;6.37;;
6412;SDS011;3239;48.714;9.472;2023-06-22T01:35:07;8.17;;;5.40;;
6412;SDS011;3239;48.714;9.472;2023-06-22T01:37:35;8.70;;;5.90;;
6412;SDS011;3239;48.714;9.472;2023-06-22T01:40:03;12.00;;;5.97;;
6412;SDS011;3239;48.714;9.472;2023-06-22T01:42:32;6.77;;;5.53;;
6412;SDS011;3239;48.714;9.472;2023-06-22T01:44:58;9.20;;;7.23;;
6412;SDS011;3239;48.714;9.472;2023-06-22T01:47:25;7.53;;;6.70;;
6412;SDS011;3239;48.714;9.472;2023-06-22T01:49:52;13.63;;;7.03;;
6412;SDS011;3239;48.714;9.472;2023-06-22T01:52:18;6.87;;;6.20;;
6412;SDS011;3239;48.714;9.472;2023-06-22T01:54:46;6.43;;;5.83;;
6412;SDS011;3239;48.714;9.472;2023-06-22T01:57:13;9.00;;;6.30;;
6412;SDS011;3239;48.714;9.472;2023-06-22T02:02:09;6.53;;;5.37;;
6412;SDS011;3239;48.714;9.472;2023-06-22T02:04:57;5.93;;;5.30;;
6412;SDS011;3239;48.714;9.472;2023-06-22T02:07:32;6.43;;;5.83;;
6412;SDS011;3239;48.714;9.472;2023-06-22T02:10:08;8.07;;;6.03;;
6412;SDS011;3239;48.714;9.472;2023-06-22T02:12:38;6.73;;;6.10;;
6412;SDS011;3239;48.714;9.472;2023-06-22T02:15:05;7.13;;;6.53;;
6412;SDS011;3239;48.714;9.472;2023-06-22T02:17:32;7.47;;;6.43;;
6412;SDS011;3239;48.714;9.472;2023-06-22T02:19:59;7.00;;;6.30;;
6412;SDS011;3239;48.714;9.472;2023-06-22T02:22:33;8.73;;;6.80;;
6412;SDS011;3239;48.714;9.472;2023-06-22T02:24:59;9.20;;;6.97;;
6412;SDS011;3239;48.714;9.472;2023-06-22T02:27:25;11.83;;;7.03;;
6412;SDS011;3239;48.714;9.472;2023-06-22T02:29:51;7.30;;;6.60;;
6412;SDS011;3239;48.714;9.472;2023-06-22T02:32:16;7.70;;;6.93;;
6412;SDS011;3239;48.714;9.472;2023-06-22T02:34:43;7.83;;;7.10;;
6412;SDS011;3239;48.714;9.472;2023-06-22T02:37:12;7.07;;;6.30;;
6412;SDS011;3239;48.714;9.472;2023-06-22T02:39:41;8.77;;;6.70;;
6412;SDS011;3239;48.714;9.472;2023-06-22T02:42:07;8.00;;;7.20;;
6412;SDS011;3239;48.714;9.472;2023-06-22T02:44:33;9.20;;;6.77;;
6412;SDS011;3239;48.714;9.472;2023-06-22T02:46:58;7.63;;;6.93;;
6412;SDS011;3239;48.714;9.472;2023-06-22T02:49:24;8.47;;;7.20;;
6412;SDS011;3239;48.714;9.472;2023-06-22T02:51:50;8.47;;;7.37;;
6412;SDS011;3239;48.714;9.472;2023-06-22T02:54:16;6.97;;;6.37;;
6412;SDS011;3239;48.714;9.472;2023-06-22T02:56:42;7.00;;;6.30;;
6412;SDS011;3239;48.714;9.472;2023-06-22T02:59:11;12.20;;;7.33;;
6412;SDS011;3239;48.714;9.472;2023-06-22T03:01:36;7.50;;;6.80;;
6412;SDS011;3239;48.714;9.472;2023-06-22T03:04:04;8.83;;;8.03;;
6412;SDS011;3239;48.714;9.472;2023-06-22T03:06:32;8.87;;;7.87;;
6412;SDS011;3239;48.714;9.472;2023-06-22T03:09:04;11.33;;;8.07;;
6412;SDS011;3239;48.714;9.472;2023-06-22T03:11:30;11.00;;;8.10;;
6412;SDS011;3239;48.714;9.472;2023-06-22T03:13:58;8.23;;;7.43;;
6412;SDS011;3239;48.714;9.472;2023-06-22T03:16:24;8.43;;;7.60;;
6412;SDS011;3239;48.714;9.472;2023-06-22T03:18:50;9.50;;;7.27;;
6412;SDS011;3239;48.714;9.472;2023-06-22T03:21:18;7.40;;;6.70;;
6412;SDS011;3239;48.714;9.472;2023-06-22T03:23:44;8.40;;;6.87;;
6412;SDS011;3239;48.714;9.472;2023-06-22T03:26:10;9.37;;;6.37;;
6412;SDS011;3239;48.714;9.472;2023-06-22T03:28:37;7.60;;;6.67;;
6412;SDS011;3239;48.714;9.472;2023-06-22T03:31:03;9.27;;;7.50;;
6412;SDS011;3239;48.714;9.472;2023-06-22T03:33:31;15.40;;;8.63;;
6412;SDS011;3239;48.714;9.472;2023-06-22T03:35:57;10.47;;;7.80;;
6412;SDS011;3239;48.714;9.472;2023-06-22T03:38:23;8.10;;;7.40;;
6412;SDS011;3239;48.714;9.472;2023-06-22T03:40:48;10.07;;;7.13;;
6412;SDS011;3239;48.714;9.472;2023-06-22T03:43:14;8.10;;;6.13;;
6412;SDS011;3239;48.714;9.472;2023-06-22T03:45:40;9.93;;;7.07;;
6412;SDS011;3239;48.714;9.472;2023-06-22T03:48:06;8.57;;;6.80;;
6412;SDS011;3239;48.714;9.472;2023-06-22T03:50:31;10.80;;;6.87;;
6412;SDS011;3239;48.714;9.472;2023-06-22T03:52:57;8.47;;;6.50;;
6412;SDS011;3239;48.714;9.472;2023-06-22T03:55:23;8.07;;;6.87;;
6412;SDS011;3239;48.714;9.472;2023-06-22T03:57:48;7.77;;;7.07;;
6412;SDS011;3239;48.714;9.472;2023-06-22T04:00:14;8.07;;;7.10;;
6412;SDS011;3239;48.714;9.472;2023-06-22T04:02:43;7.97;;;7.17;;
6412;SDS011;3239;48.714;9.472;2023-06-22T04:05:09;6.90;;;6.20;;
6412;SDS011;3239;48.714;9.472;2023-06-22T04:07:35;8.57;;;7.70;;
6412;SDS011;3239;48.714;9.472;2023-06-22T04:10:02;8.90;;;6.83;;
6412;SDS011;3239;48.714;9.472;2023-06-22T04:12:29;9.40;;;6.90;;
6412;SDS011;3239;48.714;9.472;2023-06-22T04:14:55;8.10;;;6.57;;
6412;SDS011;3239;48.714;9.472;2023-06-22T04:17:20;7.87;;;6.87;;
6412;SDS011;3239;48.714;9.472;2023-06-22T04:19:49;9.30;;;7.03;;
6412;SDS011;3239;48.714;9.472;2023-06-22T04:22:16;10.97;;;7.97;;
6412;SDS011;3239;48.714;9.472;2023-06-22T04:24:42;12.90;;;7.30;;
6412;SDS011;3239;48.714;9.472;2023-06-22T04:27:07;10.27;;;7.90;;
6412;SDS011;3239;48.714;9.472;2023-06-22T04:29:33;9.43;;;7.50;;
6412;SDS011;3239;48.714;9.472;2023-06-22T04:31:59;8.20;;;6.93;;
6412;SDS011;3239;48.714;9.472;2023-06-22T04:34:28;9.47;;;7.77;;
6412;SDS011;3239;48.714;9.472;2023-06-22T04:36:54;8.50;;;7.20;;
6412;SDS011;3239;48.714;9.472;2023-06-22T04:39:20;6.93;;;6.23;;
6412;SDS011;3239;48.714;9.472;2023-06-22T04:41:46;7.27;;;6.67;;
6412;SDS011;3239;48.714;9.472;2023-06-22T04:44:12;10.00;;;8.60;;
6412;SDS011;3239;48.714;9.472;2023-06-22T04:49:24;9.60;;;8.27;;
6412;SDS011;3239;48.714;9.472;2023-06-22T04:51:57;15.57;;;7.63;;
6412;SDS011;3239;48.714;9.472;2023-06-22T04:54:27;9.30;;;8.30;;
6412;SDS011;3239;48.714;9.472;2023-06-22T04:56:53;15.27;;;7.83;;
6412;SDS011;3239;48.714;9.472;2023-06-22T04:59:21;7.17;;;6.47;;
6412;SDS011;3239;48.714;9.472;2023-06-22T05:01:53;10.33;;;8.40;;
6412;SDS011;3239;48.714;9.472;2023-06-22T05:04:21;7.67;;;6.13;;
6412;SDS011;3239;48.714;9.472;2023-06-22T05:06:51;10.13;;;7.60;;
6412;SDS011;3239;48.714;9.472;2023-06-22T05:09:17;9.10;;;6.70;;
6412;SDS011;3239;48.714;9.472;2023-06-22T05:11:44;9.47;;;7.03;;
6412;SDS011;3239;48.714;9.472;2023-06-22T05:14:10;8.80;;;6.60;;
6412;SDS011;3239;48.714;9.472;2023-06-22T05:16:36;9.63;;;7.30;;
6412;SDS011;3239;48.714;9.472;2023-06-22T05:19:03;7.40;;;6.37;;
6412;SDS011;3239;48.714;9.472;2023-06-22T05:21:29;8.87;;;6.73;;
6412;SDS011;3239;48.714;9.472;2023-06-22T05:23:56;7.83;;;6.10;;
6412;SDS011;3239;48.714;9.472;2023-06-22T05:26:25;13.70;;;6.17;;
6412;SDS011;3239;48.714;9.472;2023-06-22T05:28:52;10.40;;;6.23;;
6412;SDS011;3239;48.714;9.472;2023-06-22T05:31:18;7.47;;;6.33;;
6412;SDS011;3239;48.714;9.472;2023-06-22T05:33:45;10.03;;;6.10;;
6412;SDS011;3239;48.714;9.472;2023-06-22T05:36:12;10.30;;;6.17;;
6412;SDS011;3239;48.714;9.472;2023-06-22T05:38:38;6.57;;;5.80;;
6412;SDS011;3239;48.714;9.472;2023-06-22T05:41:05;7.03;;;4.90;;
6412;SDS011;3239;48.714;9.472;2023-06-22T05:43:31;6.80;;;5.10;;
6412;SDS011;3239;48.714;9.472;2023-06-22T05:45:57;5.43;;;4.90;;
6412;SDS011;3239;48.714;9.472;2023-06-22T05:48:25;6.43;;;5.77;;
6412;SDS011;3239;48.714;9.472;2023-06-22T05:50:51;6.10;;;4.50;;
6412;SDS011;3239;48.714;9.472;2023-06-22T05:53:17;5.70;;;4.50;;
6412;SDS011;3239;48.714;9.472;2023-06-22T05:55:43;7.70;;;4.93;;
6412;SDS011;3239;48.714;9.472;2023-06-22T05:58:09;6.37;;;4.80;;
6412;SDS011;3239;48.714;9.472;2023-06-22T06:00:35;6.57;;;5.07;;
6412;SDS011;3239;48.714;9.472;2023-06-22T06:03:01;7.43;;;4.37;;
6412;SDS011;3239;48.714;9.472;2023-06-22T06:05:30;5.27;;;3.90;;
6412;SDS011;3239;48.714;9.472;2023-06-22T06:07:57;10.13;;;4.90;;
6412;SDS011;3239;48.714;9.472;2023-06-22T06:10:24;8.93;;;4.30;;
6412;SDS011;3239;48.714;9.472;2023-06-22T06:12:50;5.83;;;4.07;;
6412;SDS011;3239;48.714;9.472;2023-06-22T06:15:16;10.00;;;4.67;;
6412;SDS011;3239;48.714;9.472;2023-06-22T06:17:46;7.53;;;3.83;;
6412;SDS011;3239;48.714;9.472;2023-06-22T06:20:18;5.20;;;3.50;;
6412;SDS011;3239;48.714;9.472;2023-06-22T06:22:48;6.40;;;4.30;;
6412;SDS011;3239;48.714;9.472;2023-06-22T06:25:15;7.00;;;4.00;;
6412;SDS011;3239;48.714;9.472;2023-06-22T06:27:43;11.73;;;4.57;;
6412;SDS011;3239;48.714;9.472;2023-06-22T06:30:14;5.87;;;3.83;;
6412;SDS011;3239;48.714;9.472;2023-06-22T06:32:43;7.57;;;4.10;;
6412;SDS011;3239;48.714;9.472;2023-06-22T06:35:13;6.67;;;3.90;;
6412;SDS011;3239;48.714;9.472;2023-06-22T06:37:42;8.50;;;3.90;;
6412;SDS011;3239;48.714;9.472;2023-06-22T06:40:12;8.27;;;4.20;;
6412;SDS011;3239;48.714;9.472;2023-06-22T06:42:48;6.47;;;3.70;;
6412;SDS011;3239;48.714;9.472;2023-06-22T06:45:21;9.33;;;3.43;;
6412;SDS011;3239;48.714;9.472;2023-06-22T06:47:48;8.20;;;3.53;;
6412;SDS011;3239;48.714;9.472;2023-06-22T06:50:15;13.50;;;4.10;;
6412;SDS011;3239;48.714;9.472;2023-06-22T06:52:42;4.57;;;4.13;;
6412;SDS011;3239;48.714;9.472;2023-06-22T06:55:08;7.83;;;3.60;;
6412;SDS011;3239;48.714;9.472;2023-06-22T06:57:37;8.80;;;3.43;;
6412;SDS011;3239;48.714;9.472;2023-06-22T07:00:04;7.53;;;4.13;;
6412;SDS011;3239;48.714;9.472;2023-06-22T07:02:35;4.43;;;3.60;;
6412;SDS011;3239;48.714;9.472;2023-06-22T07:05:01;4.83;;;3.77;;
6412;SDS011;3239;48.714;9.472;2023-06-22T07:07:29;6.30;;;3.50;;
6412;SDS011;3239;48.714;9.472;2023-06-22T07:09:55;5.63;;;3.57;;
6412;SDS011;3239;48.714;9.472;2023-06-22T07:12:21;6.13;;;3.50;;
6412;SDS011;3239;48.714;9.472;2023-06-22T07:14:46;9.40;;;4.40;;
6412;SDS011;3239;48.714;9.472;2023-06-22T07:17:12;13.47;;;3.87;;
6412;SDS011;3239;48.714;9.472;2023-06-22T07:19:38;7.50;;;3.90;;
6412;SDS011;3239;48.714;9.472;2023-06-22T07:22:04;5.70;;;3.60;;
6412;SDS011;3239;48.714;9.472;2023-06-22T07:24:30;6.10;;;3.73;;
6412;SDS011;3239;48.714;9.472;2023-06-22T07:26:56;7.10;;;3.93;;
6412;SDS011;3239;48.714;9.472;2023-06-22T07:29:22;6.60;;;3.50;;
6412;SDS011;3239;48.714;9.472;2023-06-22T07:31:49;12.63;;;3.80;;
6412;SDS011;3239;48.714;9.472;2023-06-22T07:34:16;9.57;;;3.57;;
6412;SDS011;3239;48.714;9.472;2023-06-22T07:36:43;8.10;;;3.77;;
6412;SDS011;3239;48.714;9.472;2023-06-22T07:39:09;6.60;;;3.80;;
6412;SDS011;3239;48.714;9.472;2023-06-22T07:41:35;7.23;;;3.67;;
6412;SDS011;3239;48.714;9.472;2023-06-22T07:44:02;11.10;;;3.60;;
6412;SDS011;3239;48.714;9.472;2023-06-22T07:46:28;7.50;;;4.17;;
6412;SDS011;3239;48.714;9.472;2023-06-22T07:48:55;12.80;;;4.00;;
6412;SDS011;3239;48.714;9.472;2023-06-22T07:51:22;12.37;;;4.20;;
6412;SDS011;3239;48.714;9.472;2023-06-22T07:53:48;9.00;;;3.90;;
6412;SDS011;3239;48.714;9.472;2023-06-22T07:56:14;7.93;;;4.40;;
6412;SDS011;3239;48.714;9.472;2023-06-22T07:58:44;16.73;;;3.93;;
6412;SDS011;3239;48.714;9.472;2023-06-22T08:01:11;14.10;;;4.00;;
6412;SDS011;3239;48.714;9.472;2023-06-22T08:03:37;10.97;;;4.13;;
6412;SDS011;3239;48.714;9.472;2023-06-22T08:06:04;7.47;;;3.70;;
6412;SDS011;3239;48.714;9.472;2023-06-22T08:08:30;12.23;;;5.00;;
6412;SDS011;3239;48.714;9.472;2023-06-22T08:10:56;14.23;;;4.20;;
6412;SDS011;3239;48.714;9.472;2023-06-22T08:13:22;7.80;;;3.23;;
6412;SDS011;3239;48.714;9.472;2023-06-22T08:15:48;9.60;;;3.50;;
6412;SDS011;3239;48.714;9.472;2023-06-22T08:18:14;9.83;;;4.33;;
6412;SDS011;3239;48.714;9.472;2023-06-22T08:20:41;10.70;;;4.20;;
6412;SDS011;3239;48.714;9.472;2023-06-22T08:23:07;11.33;;;4.70;;
6412;SDS011;3239;48.714;9.472;2023-06-22T08:25:33;10.63;;;3.97;;
6412;SDS011;3239;48.714;9.472;2023-06-22T08:28:00;7.20;;;4.00;;
6412;SDS011;3239;48.714;9.472;2023-06-22T08:30:27;7.80;;;3.40;;
6412;SDS011;3239;48.714;9.472;2023-06-22T08:32:53;13.13;;;4.20;;
6412;SDS011;3239;48.714;9.472;2023-06-22T08:35:21;7.43;;;4.23;;
6412;SDS011;3239;48.714;9.472;2023-06-22T08:37:48;8.23;;;3.90;;
6412;SDS011;3239;48.714;9.472;2023-06-22T08:40:22;11.70;;;4.60;;
6412;SDS011;3239;48.714;9.472;2023-06-22T08:42:48;11.10;;;4.00;;
6412;SDS011;3239;48.714;9.472;2023-06-22T08:45:14;9.27;;;4.17;;
6412;SDS011;3239;48.714;9.472;2023-06-22T08:47:40;6.80;;;3.50;;
6412;SDS011;3239;48.714;9.472;2023-06-22T08:50:07;8.17;;;4.00;;
6412;SDS011;3239;48.714;9.472;2023-06-22T08:52:37;10.60;;;3.73;;
6412;SDS011;3239;48.714;9.472;2023-06-22T08:55:06;7.50;;;3.93;;
6412;SDS011;3239;48.714;9.472;2023-06-22T08:57:33;9.70;;;3.70;;
6412;SDS011;3239;48.714;9.472;2023-06-22T09:00:02;8.50;;;3.60;;
6412;SDS011;3239;48.714;9.472;2023-06-22T09:02:30;11.27;;;4.53;;
6412;SDS011;3239;48.714;9.472;2023-06-22T09:04:57;9.77;;;3.67;;
6412;SDS011;3239;48.714;9.472;2023-06-22T09:07:23;9.43;;;4.00;;
6412;SDS011;3239;48.714;9.472;2023-06-22T09:09:50;17.30;;;4.60;;
6412;SDS011;3239;48.714;9.472;2023-06-22T09:12:16;8.50;;;4.53;;
6412;SDS011;3239;48.714;9.472;2023-06-22T09:14:45;8.70;;;4.10;;
6412;SDS011;3239;48.714;9.472;2023-06-22T09:17:12;15.10;;;4.23;;
6412;SDS011;3239;48.714;9.472;2023-06-22T09:19:38;11.50;;;4.50;;
6412;SDS011;3239;48.714;9.472;2023-06-22T09:22:04;12.00;;;4.10;;
6412;SDS011;3239;48.714;9.472;2023-06-22T09:24:31;8.30;;;3.90;;
6412;SDS011;3239;48.714;9.472;2023-06-22T09:26:57;8.60;;;4.10;;
6412;SDS011;3239;48.714;9.472;2023-06-22T09:29:24;7.80;;;4.03;;
6412;SDS011;3239;48.714;9.472;2023-06-22T09:31:50;8.50;;;4.27;;
6412;SDS011;3239;48.714;9.472;2023-06-22T09:34:16;9.00;;;4.07;;
6412;SDS011;3239;48.714;9.472;2023-06-22T09:36:45;15.23;;;4.90;;
6412;SDS011;3239;48.714;9.472;2023-06-22T09:39:11;14.93;;;4.80;;
6412;SDS011;3239;48.714;9.472;2023-06-22T09:41:37;13.50;;;4.80;;
6412;SDS011;3239;48.714;9.472;2023-06-22T09:44:03;9.90;;;4.00;;
6412;SDS011;3239;48.714;9.472;2023-06-22T09:46:29;8.93;;;4.37;;
6412;SDS011;3239;48.714;9.472;2023-06-22T09:48:54;12.40;;;4.47;;
6412;SDS011;3239;48.714;9.472;2023-06-22T09:51:20;15.97;;;5.00;;
6412;SDS011;3239;48.714;9.472;2023-06-22T09:53:47;9.30;;;4.83;;
6412;SDS011;3239;48.714;9.472;2023-06-22T09:56:13;9.90;;;4.17;;
6412;SDS011;3239;48.714;9.472;2023-06-22T09:58:41;14.50;;;4.90;;
6412;SDS011;3239;48.714;9.472;2023-06-22T10:01:08;14.37;;;4.80;;
6412;SDS011;3239;48.714;9.472;2023-06-22T10:03:35;6.67;;;4.50;;
6412;SDS011;3239;48.714;9.472;2023-06-22T10:06:02;17.63;;;6.10;;
6412;SDS011;3239;48.714;9.472;2023-06-22T10:08:28;9.50;;;5.20;;
6412;SDS011;3239;48.714;9.472;2023-06-22T10:10:54;9.13;;;4.87;;
6412;SDS011;3239;48.714;9.472;2023-06-22T10:13:20;10.87;;;4.93;;
6412;SDS011;3239;48.714;9.472;2023-06-22T10:15:45;12.57;;;5.30;;
6412;SDS011;3239;48.714;9.472;2023-06-22T10:18:17;11.73;;;4.90;;
6412;SDS011;3239;48.714;9.472;2023-06-22T10:20:44;11.33;;;4.37;;
6412;SDS011;3239;48.714;9.472;2023-06-22T10:23:18;20.90;;;5.50;;
6412;SDS011;3239;48.714;9.472;2023-06-22T10:25:47;13.93;;;4.90;;
6412;SDS011;3239;48.714;9.472;2023-06-22T10:28:13;15.23;;;5.40;;
6412;SDS011;3239;48.714;9.472;2023-06-22T10:30:39;8.70;;;4.93;;
6412;SDS011;3239;48.714;9.472;2023-06-22T10:33:09;10.93;;;5.43;;
6412;SDS011;3239;48.714;9.472;2023-06-22T10:35:36;8.87;;;4.80;;
6412;SDS011;3239;48.714;9.472;2023-06-22T10:38:05;12.60;;;5.07;;
6412;SDS011;3239;48.714;9.472;2023-06-22T10:40:31;10.40;;;5.30;;
6412;SDS011;3239;48.714;9.472;2023-06-22T10:42:58;9.90;;;5.03;;
6412;SDS011;3239;48.714;9.472;2023-06-22T10:45:23;11.67;;;5.20;;
6412;SDS011;3239;48.714;9.472;2023-06-22T10:47:49;8.47;;;4.90;;
6412;SDS011;3239;48.714;9.472;2023-06-22T10:50:15;15.40;;;5.83;;
6412;SDS011;3239;48.714;9.472;2023-06-22T10:52:41;8.27;;;4.93;;
6412;SDS011;3239;48.714;9.472;2023-06-22T10:55:07;13.67;;;5.73;;
6412;SDS011;3239;48.714;9.472;2023-06-22T10:57:34;6.50;;;4.50;;
6412;SDS011;3239;48.714;9.472;2023-06-22T10:59:59;15.97;;;4.57;;
6412;SDS011;3239;48.714;9.472;2023-06-22T11:02:25;15.93;;;5.13;;
6412;SDS011;3239;48.714;9.472;2023-06-22T11:04:53;11.80;;;5.33;;
6412;SDS011;3239;48.714;9.472;2023-06-22T11:07:19;12.97;;;5.53;;
6412;SDS011;3239;48.714;9.472;2023-06-22T11:09:44;13.67;;;5.13;;
6412;SDS011;3239;48.714;9.472;2023-06-22T11:12:10;22.17;;;5.30;;
6412;SDS011;3239;48.714;9.472;2023-06-22T11:14:36;22.90;;;5.90;;
6412;SDS011;3239;48.714;9.472;2023-06-22T11:17:04;15.60;;;5.00;;
6412;SDS011;3239;48.714;9.472;2023-06-22T11:19:30;13.70;;;5.10;;
6412;SDS011;3239;48.714;9.472;2023-06-22T11:21:55;13.83;;;5.50;;
6412;SDS011;3239;48.714;9.472;2023-06-22T11:24:21;12.60;;;5.00;;
6412;SDS011;3239;48.714;9.472;2023-06-22T11:26:47;13.17;;;4.57;;
6412;SDS011;3239;48.714;9.472;2023-06-22T11:29:13;14.70;;;5.20;;
6412;SDS011;3239;48.714;9.472;2023-06-22T11:31:38;6.90;;;4.70;;
6412;SDS011;3239;48.714;9.472;2023-06-22T11:34:04;8.53;;;5.03;;
6412;SDS011;3239;48.714;9.472;2023-06-22T11:36:30;10.60;;;4.77;;
6412;SDS011;3239;48.714;9.472;2023-06-22T11:38:58;18.03;;;5.10;;
6412;SDS011;3239;48.714;9.472;2023-06-22T11:41:24;15.07;;;4.53;;
6412;SDS011;3239;48.714;9.472;2023-06-22T11:43:49;13.13;;;4.87;;
6412;SDS011;3239;48.714;9.472;2023-06-22T11:46:15;17.67;;;5.83;;
6412;SDS011;3239;48.714;9.472;2023-06-22T11:48:41;11.37;;;4.70;;
6412;SDS011;3239;48.714;9.472;2023-06-22T11:51:06;24.23;;;5.43;;
6412;SDS011;3239;48.714;9.472;2023-06-22T11:53:33;12.57;;;5.03;;
6412;SDS011;3239;48.714;9.472;2023-06-22T11:56:00;9.40;;;5.23;;
6412;SDS011;3239;48.714;9.472;2023-06-22T11:58:26;8.57;;;5.53;;
6412;SDS011;3239;48.714;9.472;2023-06-22T12:00:52;13.57;;;5.07;;
6412;SDS011;3239;48.714;9.472;2023-06-22T12:03:19;11.87;;;5.20;;
6412;SDS011;3239;48.714;9.472;2023-06-22T12:05:46;14.53;;;5.47;;
6412;SDS011;3239;48.714;9.472;2023-06-22T12:08:12;15.33;;;5.17;;
6412;SDS011;3239;48.714;9.472;2023-06-22T12:10:38;9.07;;;5.37;;
6412;SDS011;3239;48.714;9.472;2023-06-22T12:13:05;17.47;;;5.20;;
6412;SDS011;3239;48.714;9.472;2023-06-22T12:15:30;17.93;;;5.53;;
6412;SDS011;3239;48.714;9.472;2023-06-22T12:17:56;14.67;;;5.70;;
6412;SDS011;3239;48.714;9.472;2023-06-22T12:20:22;10.67;;;4.90;;
6412;SDS011;3239;48.714;9.472;2023-06-22T12:22:48;11.07;;;5.23;;
6412;SDS011;3239;48.714;9.472;2023-06-22T12:25:16;14.77;;;6.00;;
6412;SDS011;3239;48.714;9.472;2023-06-22T12:27:42;14.60;;;5.67;;
6412;SDS011;3239;48.714;9.472;2023-06-22T12:30:08;12.30;;;6.17;;
6412;SDS011;3239;48.714;9.472;2023-06-22T12:32:34;15.40;;;5.10;;
6412;SDS011;3239;48.714;9.472;2023-06-22T12:35:00;14.27;;;5.00;;
6412;SDS011;3239;48.714;9.472;2023-06-22T12:37:25;12.50;;;5.10;;
6412;SDS011;3239;48.714;9.472;2023-06-22T12:39:51;19.60;;;5.60;;
6412;SDS011;3239;48.714;9.472;2023-06-22T12:42:19;14.33;;;5.20;;
6412;SDS011;3239;48.714;9.472;2023-06-22T12:44:46;16.00;;;5.20;;
6412;SDS011;3239;48.714;9.472;2023-06-22T12:47:11;12.47;;;5.20;;
6412;SDS011;3239;48.714;9.472;2023-06-22T12:49:38;12.10;;;5.00;;
6412;SDS011;3239;48.714;9.472;2023-06-22T12:52:08;14.87;;;5.30;;
6412;SDS011;3239;48.714;9.472;2023-06-22T12:54:35;14.03;;;5.07;;
6412;SDS011;3239;48.714;9.472;2023-06-22T12:57:01;14.00;;;5.23;;
6412;SDS011;3239;48.714;9.472;2023-06-22T12:59:27;9.27;;;4.60;;
6412;SDS011;3239;48.714;9.472;2023-06-22T13:01:52;13.13;;;5.27;;
6412;SDS011;3239;48.714;9.472;2023-06-22T13:04:18;12.13;;;5.60;;
6412;SDS011;3239;48.714;9.472;2023-06-22T13:06:44;12.17;;;5.20;;
6412;SDS011;3239;48.714;9.472;2023-06-22T13:09:12;19.23;;;5.00;;
6412;SDS011;3239;48.714;9.472;2023-06-22T13:11:39;11.40;;;5.23;;
6412;SDS011;3239;48.714;9.472;2023-06-22T13:14:06;11.30;;;5.10;;
6412;SDS011;3239;48.714;9.472;2023-06-22T13:16:31;15.33;;;4.50;;
6412;SDS011;3239;48.714;9.472;2023-06-22T13:18:57;18.00;;;5.60;;
6412;SDS011;3239;48.714;9.472;2023-06-22T13:21:23;14.63;;;5.27;;
6412;SDS011;3239;48.714;9.472;2023-06-22T13:23:49;18.97;;;5.83;;
6412;SDS011;3239;48.714;9.472;2023-06-22T13:26:14;16.33;;;5.83;;
6412;SDS011;3239;48.714;9.472;2023-06-22T13:28:40;14.60;;;5.47;;
6412;SDS011;3239;48.714;9.472;2023-06-22T13:31:06;15.50;;;4.93;;
6412;SDS011;3239;48.714;9.472;2023-06-22T13:33:32;11.60;;;4.90;;
6412;SDS011;3239;48.714;9.472;2023-06-22T13:35:57;15.07;;;5.90;;
6412;SDS011;3239;48.714;9.472;2023-06-22T13:38:23;11.50;;;5.37;;
6412;SDS011;3239;48.714;9.472;2023-06-22T13:40:49;11.57;;;5.17;;
6412;SDS011;3239;48.714;9.472;2023-06-22T13:43:15;16.37;;;5.70;;
6412;SDS011;3239;48.714;9.472;2023-06-22T13:45:41;18.43;;;5.60;;
6412;SDS011;3239;48.714;9.472;2023-06-22T13:48:08;14.57;;;5.40;;
6412;SDS011;3239;48.714;9.472;2023-06-22T13:50:34;17.13;;;5.70;;
6412;SDS011;3239;48.714;9.472;2023-06-22T13:53:00;9.30;;;4.70;;
6412;SDS011;3239;48.714;9.472;2023-06-22T13:55:25;14.30;;;5.40;;
6412;SDS011;3239;48.714;9.472;2023-06-22T13:57:51;14.83;;;4.83;;
6412;SDS011;3239;48.714;9.472;2023-06-22T14:00:17;14.97;;;5.03;;
6412;SDS011;3239;48.714;9.472;2023-06-22T14:02:44;7.83;;;4.47;;
6412;SDS011;3239;48.714;9.472;2023-06-22T14:05:10;11.93;;;5.00;;
6412;SDS011;3239;48.714;9.472;2023-06-22T14:07:36;8.23;;;4.40;;
6412;SDS011;3239;48.714;9.472;2023-06-22T14:10:02;7.50;;;4.90;;
6412;SDS011;3239;48.714;9.472;2023-06-22T14:12:28;13.30;;;5.60;;
6412;SDS011;3239;48.714;9.472;2023-06-22T14:14:54;14.73;;;5.50;;
6412;SDS011;3239;48.714;9.472;2023-06-22T14:17:20;12.87;;;4.67;;
6412;SDS011;3239;48.714;9.472;2023-06-22T14:19:50;10.60;;;5.07;;
6412;SDS011;3239;48.714;9.472;2023-06-22T14:22:17;11.30;;;4.87;;
6412;SDS011;3239;48.714;9.472;2023-06-22T14:24:45;19.40;;;5.47;;
6412;SDS011;3239;48.714;9.472;2023-06-22T14:27:12;12.90;;;4.33;;
6412;SDS011;3239;48.714;9.472;2023-06-22T14:29:37;10.77;;;4.50;;
6412;SDS011;3239;48.714;9.472;2023-06-22T14:32:03;13.10;;;4.63;;
6412;SDS011;3239;48.714;9.472;2023-06-22T14:34:31;14.17;;;4.90;;
6412;SDS011;3239;48.714;9.472;2023-06-22T14:36:58;14.17;;;4.13;;
6412;SDS011;3239;48.714;9.472;2023-06-22T14:39:23;18.37;;;4.43;;
6412;SDS011;3239;48.714;9.472;2023-06-22T14:41:49;15.30;;;5.13;;
6412;SDS011;3239;48.714;9.472;2023-06-22T14:44:15;8.67;;;4.53;;
6412;SDS011;3239;48.714;9.472;2023-06-22T14:46:41;15.50;;;4.67;;
6412;SDS011;3239;48.714;9.472;2023-06-22T14:49:06;9.87;;;4.83;;
6412;SDS011;3239;48.714;9.472;2023-06-22T14:51:32;15.87;;;4.33;;
6412;SDS011;3239;48.714;9.472;2023-06-22T14:53:58;15.03;;;4.50;;
6412;SDS011;3239;48.714;9.472;2023-06-22T14:56:23;16.10;;;4.70;;
6412;SDS011;3239;48.714;9.472;2023-06-22T14:58:49;14.13;;;4.23;;
6412;SDS011;3239;48.714;9.472;2023-06-22T15:01:18;14.33;;;4.40;;
6412;SDS011;3239;48.714;9.472;2023-06-22T15:03:44;14.13;;;4.80;;
6412;SDS011;3239;48.714;9.472;2023-06-22T15:06:10;9.80;;;4.50;;
6412;SDS011;3239;48.714;9.472;2023-06-22T15:08:42;14.93;;;5.03;;
6412;SDS011;3239;48.714;9.472;2023-06-22T15:11:07;12.50;;;4.53;;
6412;SDS011;3239;48.714;9.472;2023-06-22T15:13:33;12.33;;;5.20;;
6412;SDS011;3239;48.714;9.472;2023-06-22T15:16:00;13.53;;;4.80;;
6412;SDS011;3239;48.714;9.472;2023-06-22T15:18:30;11.70;;;4.77;;
6412;SDS011;3239;48.714;9.472;2023-06-22T15:20:58;16.50;;;5.33;;
6412;SDS011;3239;48.714;9.472;2023-06-22T15:23:26;20.17;;;5.63;;